CheckWX is a tool to help pilots better visualize weather data.  It is not intended as a substitute for an official pre-flight weather briefing.

00:04:11 UTC

ENFB METAR
Oslo, Fornebu Airport
Oslo, Norway
Current

14 mins ago

ENFB 222350Z AUTO 13021KT 9999NDV BKN044/// 09/04 Q1010 W///S3
Observed
Nov-22 @ 23:50 UTC
Wind
  • 130° at 21 KTS
Visibility
Cloud Levels
  • Broken at 4,400' AGL
Temperature
C / 48°F
Dewpoint
C / 39°F
Humidity
71%
Altimeter
29.82" Hg
Pressure
1009.92 hPa
Previous

44 mins ago

ENFB 222320Z AUTO 13019KT 9999NDV OVC041/// 09/04 Q1010 W///S3
Observed
Nov-22 @ 23:20 UTC
Wind
  • 130° at 19 KTS
Visibility
Cloud Levels
  • Overcast at 4,100' AGL
Temperature
C / 48°F
Dewpoint
C / 39°F
Humidity
71%
Altimeter
29.82" Hg
Pressure
1009.92 hPa
Previous

1 hour ago

ENFB 222250Z AUTO 12016KT 9999NDV OVC042/// 09/06 Q1010 W///S3
Observed
Nov-22 @ 22:50 UTC
Wind
  • 120° at 16 KTS
Visibility
Cloud Levels
  • Overcast at 4,200' AGL
Temperature
C / 48°F
Dewpoint
C / 43°F
Humidity
82%
Altimeter
29.82" Hg
Pressure
1009.92 hPa